Time;durP1;ratioP1;P1;durP2;ratioP2;P2;SDS_P1;SDS_P2;PMS_P1;PMS_P2;Temp;Humidity;BMP_temperature;BMP_pressure;BME280_temperature;BME280_humidity;BME280_pressure;Samples;Min_cycle;Max_cycle;Signal;HPM_P1;HPM_P2
2022/01/27 00:04:35;;;;;;;9.18;4.72;;;;;;;;;;4985731;28;20057;-71
2022/01/27 00:07:01;;;;;;;11.70;5.18;;;;;;;;;;4983919;28;20202;-71
2022/01/27 00:09:44;;;;;;;8.80;5.03;;;;;;;;;;4986390;28;20081;-71
2022/01/27 00:12:11;;;;;;;9.50;4.50;;;;;;;;;;4984960;28;20141;-71
2022/01/27 00:14:45;;;;;;;9.90;5.35;;;;;;;;;;4969674;28;20461;-71
2022/01/27 00:17:14;;;;;;;;;;;;;;;;;;4984356;28;20046;-71
2022/01/27 00:19:40;;;;;;;11.70;5.25;;;;;;;;;;4985905;28;19917;-71
2022/01/27 00:22:06;;;;;;;9.27;4.88;;;;;;;;;;4984800;28;20498;-71
2022/01/27 00:24:32;;;;;;;10.23;5.32;;;;;;;;;;4985826;28;20113;-70
2022/01/27 00:26:59;;;;;;;8.82;4.45;;;;;;;;;;4984586;28;20042;-71
2022/01/27 00:29:25;;;;;;;10.18;4.90;;;;;;;;;;4985777;28;20077;-71
2022/01/27 00:31:51;;;;;;;11.02;5.22;;;;;;;;;;4984568;28;20046;-70
2022/01/27 00:34:17;;;;;;;10.40;5.35;;;;;;;;;;4985750;28;20046;-70
2022/01/27 00:36:43;;;;;;;10.80;5.18;;;;;;;;;;4984401;28;20120;-70
2022/01/27 00:39:09;;;;;;;9.38;4.80;;;;;;;;;;5003221;28;20040;-70
2022/01/27 00:41:35;;;;;;;8.60;4.68;;;;;;;;;;4984913;28;20551;-70
2022/01/27 00:44:02;;;;;;;9.40;5.13;;;;;;;;;;4985391;28;20045;-70
2022/01/27 00:46:31;;;;;;;8.18;4.47;;;;;;;;;;5003116;28;20030;-70
2022/01/27 00:48:57;;;;;;;9.93;4.57;;;;;;;;;;4985338;28;20057;-70
2022/01/27 00:51:28;;;;;;;10.85;5.22;;;;;;;;;;4983783;28;20646;-70
2022/01/27 00:54:12;;;;;;;10.02;5.22;;;;;;;;;;4968728;28;20125;-70
2022/01/27 00:56:49;;;;;;;10.97;5.70;;;;;;;;;;4984101;28;20053;-69
2022/01/27 00:59:29;;;;;;;8.80;4.70;;;;;;;;;;4985163;28;20363;-70
2022/01/27 01:02:08;;;;;;;9.38;4.82;;;;;;;;;;4984258;28;20046;-70
2022/01/27 01:04:38;;;;;;;11.80;5.38;;;;;;;;;;4969282;28;20056;-69
2022/01/27 01:07:05;;;;;;;9.48;5.18;;;;;;;;;;4984095;28;20281;-70
2022/01/27 01:13:15;;;;;;;10.82;5.85;;;;;;;;;;4984364;28;20112;-69
2022/01/27 01:15:25;;;;;;;;;;;;;;;;;;5002678;28;20462;-69
2022/01/27 01:20:41;;;;;;;10.65;5.57;;;;;;;;;;4985199;28;20041;-70
2022/01/27 01:33:57;;;;;;;11.55;5.10;;;;;;;;;;4988790;28;20112;-70
2022/01/27 01:36:44;;;;;;;10.65;4.93;;;;;;;;;;4987854;28;20672;-70
2022/01/27 01:39:10;;;;;;;9.40;4.78;;;;;;;;;;4973106;28;20042;-70
2022/01/27 01:41:36;;;;;;;10.70;4.95;;;;;;;;;;4988298;28;20120;-70
2022/01/27 01:44:02;;;;;;;8.68;4.82;;;;;;;;;;4989034;28;20787;-69
2022/01/27 01:46:29;;;;;;;12.10;5.35;;;;;;;;;;4988062;28;20088;-69
2022/01/27 01:48:55;;;;;;;11.52;5.45;;;;;;;;;;4989342;28;20045;-69
2022/01/27 01:51:26;;;;;;;11.98;5.45;;;;;;;;;;4971949;28;20065;-69
2022/01/27 01:53:52;;;;;;;11.77;5.32;;;;;;;;;;5005861;28;20081;-70
2022/01/27 01:56:18;;;;;;;9.18;4.72;;;;;;;;;;4987823;28;20045;-70
2022/01/27 01:58:44;;;;;;;9.23;4.72;;;;;;;;;;4976828;28;20042;-69
2022/01/27 02:01:10;;;;;;;10.35;5.10;;;;;;;;;;4969042;28;20045;-70
2022/01/27 02:03:36;;;;;;;11.05;5.20;;;;;;;;;;4988476;28;20058;-69
2022/01/27 02:06:02;;;;;;;11.20;5.50;;;;;;;;;;4987564;28;20122;-70
2022/01/27 02:08:38;;;;;;;9.98;5.10;;;;;;;;;;4987690;28;20080;-69
2022/01/27 02:19:19;;;;;;;9.23;4.57;;;;;;;;;;4987905;28;20045;-70
2022/01/27 02:21:46;;;;;;;10.27;4.60;;;;;;;;;;4985895;28;20037;-69
2022/01/27 02:24:12;;;;;;;13.05;5.78;;;;;;;;;;4987890;28;20144;-70
2022/01/27 02:26:38;;;;;;;10.63;5.28;;;;;;;;;;5004714;28;20034;-70
2022/01/27 02:29:04;;;;;;;8.98;5.15;;;;;;;;;;4987748;28;20061;-69
2022/01/27 02:31:30;;;;;;;11.35;5.15;;;;;;;;;;4985781;28;20038;-70
2022/01/27 02:33:57;;;;;;;9.10;4.90;;;;;;;;;;4985998;28;20414;-70
2022/01/27 02:36:23;;;;;;;10.32;5.20;;;;;;;;;;4980630;28;20034;-69
2022/01/27 02:38:49;;;;;;;9.77;4.60;;;;;;;;;;4966340;28;20097;-69
2022/01/27 02:41:16;;;;;;;9.50;4.60;;;;;;;;;;4969242;28;20060;-70
2022/01/27 02:43:42;;;;;;;11.68;5.40;;;;;;;;;;4985571;28;20046;-69
2022/01/27 02:46:17;;;;;;;10.65;4.82;;;;;;;;;;4985134;28;20053;-69
2022/01/27 02:48:43;;;;;;;9.32;4.93;;;;;;;;;;4985511;28;20622;-69
2022/01/27 02:51:09;;;;;;;10.35;4.85;;;;;;;;;;4985183;28;20056;-69
2022/01/27 02:53:35;;;;;;;10.80;5.45;;;;;;;;;;4984389;28;20289;-70
2022/01/27 02:56:01;;;;;;;12.05;5.32;;;;;;;;;;4984910;28;20052;-70
2022/01/27 02:58:27;;;;;;;9.43;5.15;;;;;;;;;;4985646;28;20427;-69
2022/01/27 03:00:53;;;;;;;9.50;5.00;;;;;;;;;;4970051;28;20161;-70
2022/01/27 03:03:19;;;;;;;9.85;5.72;;;;;;;;;;4986925;28;20750;-70
2022/01/27 03:05:45;;;;;;;9.52;5.00;;;;;;;;;;4970953;28;20128;-70
2022/01/27 03:08:11;;;;;;;12.65;5.00;;;;;;;;;;4986462;28;20136;-70
2022/01/27 03:10:44;;;;;;;9.13;4.95;;;;;;;;;;4987586;28;20073;-70
2022/01/27 03:13:10;;;;;;;10.30;5.20;;;;;;;;;;4986463;28;20038;-69
2022/01/27 03:15:36;;;;;;;9.05;4.88;;;;;;;;;;4970572;28;20058;-70
2022/01/27 03:18:02;;;;;;;9.20;5.07;;;;;;;;;;4986280;28;20423;-68
2022/01/27 03:20:32;;;;;;;10.68;5.70;;;;;;;;;;5004749;28;20132;-70
2022/01/27 03:22:59;;;;;;;10.57;5.78;;;;;;;;;;4985608;28;20120;-70
2022/01/27 03:25:25;;;;;;;10.32;5.10;;;;;;;;;;4986965;28;20042;-71
2022/01/27 03:27:51;;;;;;;9.85;5.13;;;;;;;;;;4986477;28;20041;-70
2022/01/27 03:30:17;;;;;;;12.90;5.57;;;;;;;;;;4970484;28;20041;-70
2022/01/27 03:32:44;;;;;;;10.10;5.15;;;;;;;;;;4969656;28;20052;-70
2022/01/27 03:35:10;;;;;;;12.60;5.93;;;;;;;;;;4986757;28;20093;-70
2022/01/27 03:37:36;;;;;;;9.85;4.85;;;;;;;;;;5003002;28;20128;-70
2022/01/27 03:40:02;;;;;;;12.70;6.40;;;;;;;;;;4986444;28;20098;-70
2022/01/27 03:42:29;;;;;;;9.13;5.53;;;;;;;;;;4985433;28;20649;-70
2022/01/27 03:44:55;;;;;;;10.75;5.25;;;;;;;;;;4986632;28;20061;-69
2022/01/27 03:47:21;;;;;;;10.85;5.20;;;;;;;;;;4985494;28;20057;-70
2022/01/27 03:49:47;;;;;;;11.52;5.65;;;;;;;;;;4986237;28;20415;-70
2022/01/27 03:52:13;;;;;;;11.52;5.65;;;;;;;;;;4984779;28;20060;-69
2022/01/27 03:54:39;;;;;;;12.52;5.72;;;;;;;;;;4969829;28;20042;-70
2022/01/27 03:57:05;;;;;;;12.18;5.50;;;;;;;;;;4985142;28;20099;-70
2022/01/27 03:59:31;;;;;;;10.88;5.63;;;;;;;;;;5003341;28;20050;-70
2022/01/27 04:01:57;;;;;;;10.57;5.53;;;;;;;;;;4984863;28;20642;-70
2022/01/27 04:04:25;;;;;;;10.20;5.95;;;;;;;;;;4986050;28;20153;-70
2022/01/27 04:06:52;;;;;;;10.93;6.00;;;;;;;;;;4984037;28;20094;-70
2022/01/27 04:09:18;;;;;;;11.00;5.63;;;;;;;;;;4986351;28;20534;-70
2022/01/27 04:11:44;;;;;;;13.45;6.32;;;;;;;;;;4984871;28;20606;-70
2022/01/27 04:14:13;;;;;;;11.77;5.88;;;;;;;;;;4969740;28;20057;-69
2022/01/27 04:16:39;;;;;;;11.50;6.57;;;;;;;;;;4984723;28;20129;-69
2022/01/27 04:19:05;;;;;;;11.75;6.00;;;;;;;;;;4985775;28;20564;-70
2022/01/27 04:21:31;;;;;;;11.77;5.65;;;;;;;;;;5002295;28;20042;-69
2022/01/27 04:23:57;;;;;;;13.05;6.20;;;;;;;;;;4977117;28;20053;-69
2022/01/27 04:26:31;;;;;;;10.35;5.82;;;;;;;;;;4970828;28;20037;-70
2022/01/27 04:28:57;;;;;;;11.93;5.93;;;;;;;;;;4986112;28;20052;-69
2022/01/27 04:31:25;;;;;;;11.10;5.55;;;;;;;;;;4984791;28;20515;-69
2022/01/27 04:33:52;;;;;;;10.45;5.43;;;;;;;;;;4985221;28;20607;-69
2022/01/27 04:36:25;;;;;;;13.25;6.07;;;;;;;;;;4984839;28;20073;-69
2022/01/27 04:39:06;;;;;;;10.30;5.80;;;;;;;;;;4985411;28;20384;-69
2022/01/27 04:42:11;;;;;;;11.45;5.50;;;;;;;;;;4984570;28;20053;-68
2022/01/27 04:47:08;;;;;;;11.40;5.45;;;;;;;;;;4984157;28;20049;-68
2022/01/27 04:49:34;;;;;;;;;;;;;;;;;;4985803;28;20056;-69
2022/01/27 04:52:00;;;;;;;11.02;5.65;;;;;;;;;;4983045;28;20547;-69
2022/01/27 04:54:33;;;;;;;10.35;6.07;;;;;;;;;;4986120;28;20029;-69
2022/01/27 04:57:01;;;;;;;9.75;5.30;;;;;;;;;;4967946;28;20049;-69
2022/01/27 04:59:31;;;;;;;11.23;6.20;;;;;;;;;;4985480;28;20112;-69
2022/01/27 05:02:03;;;;;;;11.68;6.10;;;;;;;;;;4968115;28;20042;-69
2022/01/27 05:04:33;;;;;;;11.68;5.25;;;;;;;;;;4985096;28;20045;-69
2022/01/27 05:06:59;;;;;;;10.75;5.30;;;;;;;;;;4968598;28;20042;-69
2022/01/27 05:09:25;;;;;;;11.98;5.72;;;;;;;;;;4985322;28;20038;-69
2022/01/27 05:12:00;;;;;;;12.38;5.95;;;;;;;;;;4976255;28;20035;-70
2022/01/27 05:14:26;;;;;;;11.88;5.95;;;;;;;;;;4949358;28;20500;-69
2022/01/27 05:16:53;;;;;;;10.02;5.53;;;;;;;;;;4973652;28;20111;-69
2022/01/27 05:19:20;;;;;;;12.18;5.68;;;;;;;;;;4985056;28;20099;-69
2022/01/27 05:21:46;;;;;;;12.27;5.72;;;;;;;;;;4983527;28;20050;-70
2022/01/27 05:24:12;;;;;;;11.10;5.38;;;;;;;;;;4985193;28;20387;-70
2022/01/27 05:26:39;;;;;;;9.50;4.82;;;;;;;;;;4983763;28;20110;-69
2022/01/27 05:29:06;;;;;;;10.73;5.00;;;;;;;;;;4968987;28;20132;-70
2022/01/27 05:31:32;;;;;;;10.00;5.43;;;;;;;;;;4983707;28;20089;-69
2022/01/27 05:33:58;;;;;;;10.18;5.00;;;;;;;;;;4974222;28;20134;-69
2022/01/27 05:36:24;;;;;;;9.65;5.30;;;;;;;;;;4953682;28;20803;-70
2022/01/27 05:38:50;;;;;;;11.70;5.20;;;;;;;;;;4985231;28;20045;-69
2022/01/27 05:41:16;;;;;;;9.10;4.68;;;;;;;;;;4968745;28;20105;-68
2022/01/27 05:43:42;;;;;;;9.38;4.93;;;;;;;;;;4984551;28;20042;-69
2022/01/27 05:46:08;;;;;;;10.90;5.22;;;;;;;;;;4972110;28;20064;-69
2022/01/27 05:48:34;;;;;;;12.68;5.35;;;;;;;;;;4968799;28;20475;-70
2022/01/27 05:51:01;;;;;;;10.38;5.50;;;;;;;;;;4960810;28;20448;-69
2022/01/27 05:53:28;;;;;;;10.05;5.35;;;;;;;;;;4958255;28;20584;-69
2022/01/27 05:55:54;;;;;;;10.55;5.25;;;;;;;;;;4977064;28;20621;-69
2022/01/27 05:58:20;;;;;;;8.73;4.63;;;;;;;;;;4979847;28;20060;-69
2022/01/27 06:00:46;;;;;;;9.73;4.85;;;;;;;;;;4984247;28;20482;-70
2022/01/27 06:03:12;;;;;;;9.35;4.82;;;;;;;;;;4983744;28;20045;-70
2022/01/27 06:05:38;;;;;;;10.13;4.97;;;;;;;;;;4984463;28;20111;-70
2022/01/27 06:08:04;;;;;;;10.63;5.45;;;;;;;;;;4982844;28;20081;-70
2022/01/27 06:10:30;;;;;;;12.90;5.15;;;;;;;;;;4984959;28;20076;-70
2022/01/27 06:12:56;;;;;;;9.70;4.90;;;;;;;;;;4983432;28;20428;-70
2022/01/27 06:15:22;;;;;;;12.35;5.03;;;;;;;;;;4987657;28;20074;-70
2022/01/27 06:17:48;;;;;;;9.98;5.00;;;;;;;;;;4987272;28;20132;-70
2022/01/27 06:20:15;;;;;;;10.23;4.95;;;;;;;;;;4972062;28;20734;-70
2022/01/27 06:22:41;;;;;;;11.13;5.03;;;;;;;;;;4986731;28;20077;-71
2022/01/27 06:25:08;;;;;;;10.20;4.90;;;;;;;;;;4963942;28;20549;-70
2022/01/27 06:27:34;;;;;;;14.85;5.47;;;;;;;;;;4982171;28;20061;-70
2022/01/27 06:30:00;;;;;;;11.93;5.18;;;;;;;;;;4972524;28;20041;-70
2022/01/27 06:32:26;;;;;;;9.82;4.50;;;;;;;;;;4964422;28;21023;-69
2022/01/27 06:34:52;;;;;;;12.00;4.80;;;;;;;;;;4980694;28;20041;-70
2022/01/27 06:37:18;;;;;;;10.38;5.00;;;;;;;;;;4985023;28;20100;-70
2022/01/27 06:39:44;;;;;;;10.10;5.05;;;;;;;;;;4986940;28;20044;-70
2022/01/27 06:42:10;;;;;;;10.93;5.05;;;;;;;;;;4986622;28;20041;-70
2022/01/27 06:44:36;;;;;;;8.25;4.53;;;;;;;;;;4987330;28;20037;-70
2022/01/27 06:47:02;;;;;;;9.05;4.15;;;;;;;;;;4986342;28;20125;-70
2022/01/27 06:49:28;;;;;;;13.23;4.55;;;;;;;;;;4958138;28;20046;-71
2022/01/27 06:51:54;;;;;;;10.82;4.50;;;;;;;;;;4975900;28;20137;-70
2022/01/27 06:54:20;;;;;;;9.25;4.63;;;;;;;;;;5005134;28;20465;-70
2022/01/27 06:56:46;;;;;;;9.55;4.13;;;;;;;;;;4970201;28;20040;-70
2022/01/27 06:59:13;;;;;;;9.15;4.43;;;;;;;;;;4944312;28;21520;-69
2022/01/27 07:01:39;;;;;;;10.48;5.18;;;;;;;;;;4970748;28;20064;-70
2022/01/27 07:04:05;;;;;;;9.38;4.05;;;;;;;;;;5001021;28;20046;-70
2022/01/27 07:06:33;;;;;;;9.15;4.15;;;;;;;;;;4982836;28;20076;-70
2022/01/27 07:08:59;;;;;;;8.55;4.40;;;;;;;;;;4983721;28;20249;-70
2022/01/27 07:11:25;;;;;;;9.55;4.32;;;;;;;;;;4984586;28;20116;-70
2022/01/27 07:13:51;;;;;;;10.60;3.72;;;;;;;;;;4980498;28;20100;-71
2022/01/27 07:16:17;;;;;;;11.07;4.38;;;;;;;;;;4940350;28;20172;-71
2022/01/27 07:18:43;;;;;;;9.32;4.22;;;;;;;;;;4977851;28;20049;-70
2022/01/27 07:21:09;;;;;;;10.85;3.97;;;;;;;;;;4985791;28;20046;-70
2022/01/27 07:23:35;;;;;;;9.23;3.97;;;;;;;;;;4987226;28;20050;-70
2022/01/27 07:26:01;;;;;;;9.35;4.18;;;;;;;;;;4969484;28;20553;-70
2022/01/27 07:28:27;;;;;;;7.97;3.40;;;;;;;;;;4970501;28;20129;-70
2022/01/27 07:30:53;;;;;;;8.40;3.17;;;;;;;;;;4969987;28;20536;-70
2022/01/27 07:33:19;;;;;;;8.68;3.42;;;;;;;;;;4985797;28;20038;-70
2022/01/27 07:35:45;;;;;;;9.23;3.80;;;;;;;;;;4986418;28;20054;-70
2022/01/27 07:38:11;;;;;;;7.22;3.20;;;;;;;;;;4949166;28;20104;-70
2022/01/27 07:40:37;;;;;;;8.63;3.55;;;;;;;;;;4967349;28;20038;-70
2022/01/27 07:43:03;;;;;;;6.65;3.50;;;;;;;;;;4985394;28;20093;-70
2022/01/27 07:45:29;;;;;;;8.85;3.30;;;;;;;;;;4969877;28;20073;-70
2022/01/27 07:47:57;;;;;;;8.88;4.18;;;;;;;;;;4985327;28;20069;-70
2022/01/27 07:50:28;;;;;;;7.47;3.08;;;;;;;;;;4986819;28;20054;-70
2022/01/27 07:52:54;;;;;;;7.43;3.72;;;;;;;;;;4969109;28;20081;-69
2022/01/27 07:55:20;;;;;;;6.10;3.10;;;;;;;;;;4986600;28;20042;-69
2022/01/27 07:57:49;;;;;;;8.18;3.00;;;;;;;;;;4985640;28;20060;-70
2022/01/27 08:00:15;;;;;;;8.25;3.03;;;;;;;;;;4970026;28;20065;-70
2022/01/27 08:02:42;;;;;;;7.88;3.10;;;;;;;;;;5003180;28;20127;-70
2022/01/27 08:05:08;;;;;;;6.57;2.85;;;;;;;;;;4986182;28;20061;-70
2022/01/27 08:07:34;;;;;;;7.32;3.03;;;;;;;;;;4984623;28;20042;-70
2022/01/27 08:10:00;;;;;;;7.25;3.00;;;;;;;;;;4986324;28;20049;-70
2022/01/27 08:12:26;;;;;;;6.90;2.90;;;;;;;;;;4985122;28;20179;-70
2022/01/27 08:14:52;;;;;;;8.48;2.88;;;;;;;;;;4985869;28;20095;-71
2022/01/27 08:17:18;;;;;;;8.02;3.20;;;;;;;;;;4985188;28;20663;-71
2022/01/27 08:19:44;;;;;;;7.55;2.90;;;;;;;;;;4986070;28;20125;-71
2022/01/27 08:22:10;;;;;;;8.13;2.97;;;;;;;;;;4968562;28;20465;-70
2022/01/27 08:24:37;;;;;;;8.55;2.70;;;;;;;;;;4986459;28;20053;-69
2022/01/27 08:27:05;;;;;;;7.32;3.03;;;;;;;;;;4985794;28;20056;-71
2022/01/27 08:29:38;;;;;;;7.55;2.90;;;;;;;;;;4986127;28;20551;-70
2022/01/27 08:32:07;;;;;;;6.10;2.85;;;;;;;;;;4984591;28;20034;-70
2022/01/27 08:34:36;;;;;;;7.65;3.05;;;;;;;;;;4985866;28;20627;-70
2022/01/27 08:37:10;;;;;;;6.65;2.65;;;;;;;;;;4983681;28;20056;-70
2022/01/27 08:39:36;;;;;;;7.23;2.60;;;;;;;;;;4985381;28;20033;-71
2022/01/27 08:42:03;;;;;;;6.32;2.55;;;;;;;;;;4984603;28;20037;-71
2022/01/27 08:44:29;;;;;;;6.63;2.63;;;;;;;;;;4985057;28;20533;-71
2022/01/27 08:46:55;;;;;;;6.10;2.42;;;;;;;;;;4984263;28;20038;-70
2022/01/27 08:49:23;;;;;;;7.78;3.25;;;;;;;;;;4969607;28;20554;-71
2022/01/27 08:51:49;;;;;;;7.28;2.58;;;;;;;;;;4982917;28;20085;-71
2022/01/27 08:54:15;;;;;;;5.72;2.42;;;;;;;;;;4985376;28;20082;-71
2022/01/27 08:56:42;;;;;;;6.72;2.75;;;;;;;;;;4984201;28;20458;-71
2022/01/27 08:59:08;;;;;;;6.15;2.35;;;;;;;;;;4985062;28;20129;-71
2022/01/27 09:01:34;;;;;;;7.53;2.50;;;;;;;;;;4984460;28;20125;-71
2022/01/27 09:04:01;;;;;;;8.70;2.75;;;;;;;;;;4984993;28;20054;-71
2022/01/27 09:06:29;;;;;;;7.97;2.90;;;;;;;;;;4984090;28;20041;-71
2022/01/27 09:08:56;;;;;;;8.50;2.83;;;;;;;;;;4985112;28;20100;-71
2022/01/27 09:11:22;;;;;;;7.68;2.97;;;;;;;;;;4968363;28;20611;-71
2022/01/27 09:13:48;;;;;;;9.32;2.60;;;;;;;;;;4984658;28;20053;-71
2022/01/27 09:16:15;;;;;;;6.43;2.53;;;;;;;;;;4984433;28;20112;-71
2022/01/27 09:18:42;;;;;;;8.60;2.92;;;;;;;;;;4968828;28;20489;-71
2022/01/27 09:21:14;;;;;;;7.22;2.58;;;;;;;;;;4968226;28;20038;-71
2022/01/27 09:23:41;;;;;;;6.82;2.65;;;;;;;;;;4984999;28;20050;-71
2022/01/27 09:26:21;;;;;;;7.13;2.50;;;;;;;;;;4968314;28;20049;-71
2022/01/27 09:28:47;;;;;;;7.45;2.80;;;;;;;;;;4984927;28;20046;-71
2022/01/27 09:31:13;;;;;;;7.13;2.60;;;;;;;;;;4984204;28;20042;-71
2022/01/27 09:33:39;;;;;;;6.35;2.47;;;;;;;;;;4984652;28;20041;-71
2022/01/27 09:36:11;;;;;;;7.47;2.60;;;;;;;;;;4984259;28;20072;-71
2022/01/27 09:38:37;;;;;;;8.23;2.80;;;;;;;;;;4985085;28;20180;-72
2022/01/27 09:41:03;;;;;;;6.95;2.53;;;;;;;;;;4984244;28;20077;-71
2022/01/27 09:43:29;;;;;;;7.82;2.50;;;;;;;;;;4984869;28;20124;-72
2022/01/27 09:45:57;;;;;;;7.45;2.63;;;;;;;;;;4968196;28;20089;-71
2022/01/27 09:48:26;;;;;;;8.23;2.85;;;;;;;;;;4984517;28;20058;-70
2022/01/27 09:53:24;;;;;;;6.10;2.28;;;;;;;;;;4987073;28;20483;-70
2022/01/27 09:55:50;;;;;;;7.35;2.22;;;;;;;;;;4988952;28;20045;-70
2022/01/27 09:58:16;;;;;;;7.30;2.60;;;;;;;;;;4988783;28;20038;-70
2022/01/27 10:00:42;;;;;;;5.55;2.13;;;;;;;;;;4989185;28;20192;-70
2022/01/27 10:03:16;;;;;;;6.00;1.92;;;;;;;;;;4988106;28;20784;-70
2022/01/27 10:05:43;;;;;;;6.13;2.28;;;;;;;;;;4989563;28;20101;-70
2022/01/27 10:08:13;;;;;;;5.90;2.00;;;;;;;;;;4975607;28;20054;-70
2022/01/27 10:10:44;;;;;;;5.88;2.03;;;;;;;;;;4990642;28;20056;-70
2022/01/27 10:13:12;;;;;;;6.85;2.60;;;;;;;;;;4971305;28;20042;-69
2022/01/27 10:15:39;;;;;;;8.38;2.55;;;;;;;;;;4988186;28;20093;-69
2022/01/27 10:18:19;;;;;;;5.55;2.10;;;;;;;;;;4971243;28;20513;-70
2022/01/27 10:20:45;;;;;;;6.30;2.10;;;;;;;;;;4971972;28;20045;-70
2022/01/27 10:23:13;;;;;;;8.10;2.60;;;;;;;;;;4987542;28;20049;-69
2022/01/27 10:25:47;;;;;;;6.13;2.08;;;;;;;;;;4971745;28;20085;-69
2022/01/27 10:28:27;;;;;;;6.40;2.17;;;;;;;;;;4987857;28;20038;-70
2022/01/27 10:31:03;;;;;;;6.53;2.30;;;;;;;;;;4970844;28;20383;-70
2022/01/27 10:33:41;;;;;;;5.35;1.88;;;;;;;;;;4971346;28;20042;-70
2022/01/27 10:36:16;;;;;;;6.63;2.35;;;;;;;;;;4971257;28;20137;-70
2022/01/27 10:38:42;;;;;;;7.47;2.55;;;;;;;;;;4971387;28;20188;-70
2022/01/27 10:41:08;;;;;;;8.30;2.63;;;;;;;;;;4987619;28;20128;-70
2022/01/27 10:43:34;;;;;;;6.80;2.25;;;;;;;;;;4987524;28;20451;-70
2022/01/27 10:46:09;;;;;;;5.82;2.00;;;;;;;;;;4986807;28;20046;-70
2022/01/27 10:48:40;;;;;;;5.93;2.10;;;;;;;;;;4971142;28;20049;-70
2022/01/27 10:51:15;;;;;;;6.40;2.15;;;;;;;;;;4986729;28;20054;-70
2022/01/27 10:53:53;;;;;;;6.28;2.00;;;;;;;;;;4987058;28;20130;-70
2022/01/27 10:56:24;;;;;;;5.57;2.00;;;;;;;;;;4983101;28;20529;-70
2022/01/27 10:58:50;;;;;;;6.63;2.17;;;;;;;;;;4968055;28;20121;-70
2022/01/27 11:01:23;;;;;;;6.55;2.05;;;;;;;;;;4970937;28;20048;-70
2022/01/27 11:03:51;;;;;;;7.20;2.28;;;;;;;;;;4987161;28;20053;-69
2022/01/27 11:06:17;;;;;;;5.20;1.90;;;;;;;;;;4986237;28;20046;-70
2022/01/27 11:08:43;;;;;;;5.13;1.80;;;;;;;;;;4970036;28;20046;-69
2022/01/27 11:11:09;;;;;;;7.97;2.08;;;;;;;;;;4986293;28;20053;-70
2022/01/27 11:13:35;;;;;;;5.57;2.05;;;;;;;;;;5005289;28;20077;-69
2022/01/27 11:16:04;;;;;;;7.88;2.33;;;;;;;;;;4986260;28;20147;-71
2022/01/27 11:18:31;;;;;;;6.95;2.13;;;;;;;;;;4986935;28;20038;-70
2022/01/27 11:21:02;;;;;;;7.53;1.90;;;;;;;;;;4970189;28;20049;-70
2022/01/27 11:26:01;;;;;;;7.25;2.28;;;;;;;;;;4986115;28;20507;-71
2022/01/27 11:28:28;;;;;;;6.15;2.10;;;;;;;;;;4970354;28;20049;-71
2022/01/27 11:30:58;;;;;;;7.70;2.25;;;;;;;;;;4969895;28;20122;-70
2022/01/27 11:33:35;;;;;;;8.57;2.30;;;;;;;;;;4986218;28;20841;-70
2022/01/27 11:36:09;;;;;;;7.22;1.73;;;;;;;;;;4985938;28;20096;-70
2022/01/27 11:38:35;;;;;;;6.75;2.35;;;;;;;;;;4969424;28;20044;-70
2022/01/27 11:41:01;;;;;;;7.68;2.00;;;;;;;;;;4985938;28;20484;-70
2022/01/27 11:43:34;;;;;;;5.97;1.98;;;;;;;;;;4986565;28;20045;-70
2022/01/27 11:46:22;;;;;;;6.13;1.73;;;;;;;;;;4969565;28;20128;-70
2022/01/27 11:48:48;;;;;;;5.25;1.70;;;;;;;;;;4986157;28;20042;-70
2022/01/27 11:51:15;;;;;;;6.95;2.15;;;;;;;;;;4985599;28;20080;-70
2022/01/27 11:53:45;;;;;;;6.00;1.90;;;;;;;;;;4986166;28;20138;-71
2022/01/27 11:56:15;;;;;;;6.40;1.85;;;;;;;;;;4985609;28;20042;-69
2022/01/27 11:58:43;;;;;;;5.90;2.10;;;;;;;;;;4970947;28;20141;-70
2022/01/27 12:01:14;;;;;;;7.72;2.10;;;;;;;;;;4985610;28;20042;-70
2022/01/27 12:03:40;;;;;;;5.32;1.95;;;;;;;;;;4986388;28;20499;-70
2022/01/27 12:06:23;;;;;;;6.68;2.00;;;;;;;;;;4985451;28;20111;-70
2022/01/27 12:08:49;;;;;;;5.57;1.83;;;;;;;;;;4986101;28;20038;-70
2022/01/27 12:11:34;;;;;;;6.63;2.00;;;;;;;;;;4969303;28;20122;-70
2022/01/27 12:14:01;;;;;;;6.88;2.28;;;;;;;;;;4970200;28;20077;-70
2022/01/27 12:19:04;;;;;;;6.53;1.75;;;;;;;;;;4986112;28;20045;-70
2022/01/27 12:21:31;;;;;;;8.50;2.20;;;;;;;;;;4984611;28;20767;-70
2022/01/27 12:24:28;;;;;;;6.28;2.00;;;;;;;;;;4969160;28;20491;-70
2022/01/27 12:27:05;;;;;;;4.97;1.95;;;;;;;;;;4984325;28;20092;-70
2022/01/27 12:29:37;;;;;;;5.80;2.00;;;;;;;;;;4969475;28;20137;-70
2022/01/27 12:32:05;;;;;;;6.28;1.67;;;;;;;;;;4984401;28;20088;-70
2022/01/27 12:34:31;;;;;;;5.78;1.90;;;;;;;;;;4985499;28;20544;-70
2022/01/27 12:37:00;;;;;;;8.43;2.20;;;;;;;;;;4984281;28;20089;-71
2022/01/27 12:39:28;;;;;;;6.35;1.88;;;;;;;;;;4985552;28;20037;-70
2022/01/27 12:41:55;;;;;;;7.60;1.83;;;;;;;;;;4984379;28;20038;-70
2022/01/27 12:44:26;;;;;;;7.75;1.70;;;;;;;;;;4968798;28;20099;-70
2022/01/27 12:47:01;;;;;;;7.82;2.17;;;;;;;;;;4984570;28;20057;-70
2022/01/27 12:49:39;;;;;;;6.32;2.10;;;;;;;;;;5003169;28;20104;-70
2022/01/27 12:52:07;;;;;;;6.30;2.17;;;;;;;;;;4984009;28;20048;-70
2022/01/27 12:54:33;;;;;;;6.93;2.03;;;;;;;;;;4985315;28;20518;-70
2022/01/27 12:56:59;;;;;;;7.53;1.95;;;;;;;;;;4968364;28;20037;-70
2022/01/27 12:59:30;;;;;;;7.50;2.25;;;;;;;;;;4985588;28;20057;-69
2022/01/27 13:02:04;;;;;;;6.68;1.80;;;;;;;;;;4968420;28;20045;-70
2022/01/27 13:04:30;;;;;;;7.65;1.85;;;;;;;;;;4969229;28;20603;-70
2022/01/27 13:06:57;;;;;;;6.85;2.05;;;;;;;;;;4979341;28;20073;-70
2022/01/27 13:09:25;;;;;;;6.20;2.03;;;;;;;;;;4985356;28;20124;-69
2022/01/27 13:11:53;;;;;;;6.18;1.80;;;;;;;;;;4984654;28;20045;-70
2022/01/27 13:14:19;;;;;;;6.07;1.70;;;;;;;;;;4985203;28;20046;-69
2022/01/27 13:16:51;;;;;;;7.15;2.10;;;;;;;;;;4984072;28;20062;-70
2022/01/27 13:19:27;;;;;;;6.88;2.50;;;;;;;;;;4985511;28;20038;-70
2022/01/27 13:22:04;;;;;;;6.53;2.10;;;;;;;;;;4983682;28;20074;-70
2022/01/27 13:24:33;;;;;;;8.23;1.98;;;;;;;;;;4975064;28;20148;-70
2022/01/27 13:27:10;;;;;;;5.45;1.83;;;;;;;;;;4969532;28;20056;-69
2022/01/27 13:29:40;;;;;;;8.57;1.92;;;;;;;;;;4968590;28;20056;-70
2022/01/27 13:32:07;;;;;;;8.40;1.95;;;;;;;;;;4983400;28;20040;-70
2022/01/27 13:34:34;;;;;;;6.55;1.40;;;;;;;;;;4984382;28;20045;-70
2022/01/27 13:37:03;;;;;;;9.05;2.30;;;;;;;;;;4969313;28;20049;-70
2022/01/27 13:39:47;;;;;;;9.65;1.85;;;;;;;;;;4969363;28;20124;-70
2022/01/27 13:42:13;;;;;;;6.10;1.63;;;;;;;;;;4958786;28;20038;-70
2022/01/27 13:45:02;;;;;;;9.10;1.90;;;;;;;;;;4980957;28;20151;-68
2022/01/27 13:47:29;;;;;;;11.23;2.13;;;;;;;;;;4978930;28;20741;-70
2022/01/27 13:50:05;;;;;;;8.93;1.92;;;;;;;;;;4983705;28;20045;-68
2022/01/27 13:52:38;;;;;;;8.30;2.05;;;;;;;;;;4982719;28;20045;-70
2022/01/27 13:55:09;;;;;;;11.27;2.27;;;;;;;;;;4961388;28;20101;-69
2022/01/27 13:57:36;;;;;;;9.98;2.00;;;;;;;;;;4984376;28;20498;-71
2022/01/27 14:00:10;;;;;;;25.08;3.13;;;;;;;;;;4968469;28;20519;-68
2022/01/27 14:02:43;;;;;;;51.95;4.68;;;;;;;;;;4983163;28;20549;-69
2022/01/27 14:05:15;;;;;;;21.58;2.60;;;;;;;;;;4983659;28;20710;-68
2022/01/27 14:07:41;;;;;;;27.98;2.97;;;;;;;;;;4991131;28;20042;-69
2022/01/27 14:10:17;;;;;;;21.08;3.92;;;;;;;;;;4989257;28;20042;-69
2022/01/27 14:12:47;;;;;;;34.10;3.45;;;;;;;;;;4984405;28;20124;-69
2022/01/27 14:15:47;;;;;;;22.52;3.47;;;;;;;;;;4984719;28;20050;-69
2022/01/27 14:18:20;;;;;;;19.70;2.70;;;;;;;;;;4969623;28;20569;-69
2022/01/27 14:20:55;;;;;;;14.23;2.58;;;;;;;;;;4948727;28;20078;-69
2022/01/27 14:23:31;;;;;;;18.70;2.40;;;;;;;;;;4947526;28;20062;-69
2022/01/27 14:26:05;;;;;;;11.90;1.83;;;;;;;;;;4966552;28;20125;-69
2022/01/27 14:28:31;;;;;;;12.38;3.05;;;;;;;;;;4984702;28;20046;-69
2022/01/27 14:30:57;;;;;;;14.07;2.42;;;;;;;;;;4983931;28;20761;-69
2022/01/27 14:33:23;;;;;;;13.60;2.40;;;;;;;;;;4983719;28;20104;-69
2022/01/27 14:35:50;;;;;;;13.68;2.50;;;;;;;;;;4968258;28;20216;-69
2022/01/27 14:38:16;;;;;;;18.15;2.70;;;;;;;;;;4979604;28;20041;-69
2022/01/27 14:40:45;;;;;;;9.98;2.30;;;;;;;;;;4988257;28;20048;-69
2022/01/27 14:43:13;;;;;;;9.48;2.03;;;;;;;;;;4970930;28;20096;-69
2022/01/27 14:45:39;;;;;;;8.20;1.98;;;;;;;;;;4987483;28;20050;-68
2022/01/27 14:48:05;;;;;;;12.23;2.38;;;;;;;;;;4994051;28;20042;-69
2022/01/27 14:50:37;;;;;;;8.13;1.92;;;;;;;;;;4978439;28;20130;-69
2022/01/27 14:53:03;;;;;;;12.27;2.30;;;;;;;;;;4986776;28;20053;-69
2022/01/27 14:55:30;;;;;;;8.68;2.03;;;;;;;;;;5005016;28;20088;-68
2022/01/27 14:57:56;;;;;;;9.80;1.83;;;;;;;;;;4986864;28;20665;-69
2022/01/27 15:00:23;;;;;;;7.40;1.70;;;;;;;;;;4987590;28;20117;-68
2022/01/27 15:02:49;;;;;;;9.93;2.15;;;;;;;;;;4986566;28;20046;-69
2022/01/27 15:05:15;;;;;;;9.13;2.50;;;;;;;;;;4987514;28;20053;-69
2022/01/27 15:07:42;;;;;;;7.32;1.98;;;;;;;;;;4986159;28;20048;-68
2022/01/27 15:10:09;;;;;;;9.07;2.10;;;;;;;;;;4971359;28;20538;-68
2022/01/27 15:12:35;;;;;;;8.73;1.88;;;;;;;;;;4986262;28;20147;-69
2022/01/27 15:20:32;;;;;;;5.53;1.77;;;;;;;;;;4986766;28;20456;-69
2022/01/27 15:22:58;;;;;;;11.55;2.13;;;;;;;;;;4985819;28;20053;-69
2022/01/27 15:25:25;;;;;;;6.70;1.70;;;;;;;;;;4970792;28;20065;-68
2022/01/27 15:27:51;;;;;;;9.52;2.35;;;;;;;;;;5003472;28;20057;-70
2022/01/27 15:30:17;;;;;;;5.90;1.55;;;;;;;;;;4986821;28;20114;-67